sensor_id;sensor_type;location;lat;lon;timestamp;P1;durP1;ratioP1;P2;durP2;ratioP2
19329;SDS011;9799;48.214;16.388;2023-04-24T00:02:24;6.17;;;5.60;;
19329;SDS011;9799;48.214;16.388;2023-04-24T00:05:45;6.90;;;6.23;;
19329;SDS011;9799;48.214;16.388;2023-04-24T00:09:08;6.50;;;5.90;;
19329;SDS011;9799;48.214;16.388;2023-04-24T00:12:30;6.80;;;5.80;;
19329;SDS011;9799;48.214;16.388;2023-04-24T00:15:51;6.60;;;5.93;;
19329;SDS011;9799;48.214;16.388;2023-04-24T00:19:12;9.60;;;6.20;;
19329;SDS011;9799;48.214;16.388;2023-04-24T00:22:34;7.30;;;6.20;;
19329;SDS011;9799;48.214;16.388;2023-04-24T00:25:56;5.63;;;5.13;;
19329;SDS011;9799;48.214;16.388;2023-04-24T00:29:17;6.30;;;5.70;;
19329;SDS011;9799;48.214;16.388;2023-04-24T00:32:39;8.13;;;6.03;;
19329;SDS011;9799;48.214;16.388;2023-04-24T00:36:00;6.73;;;6.07;;
19329;SDS011;9799;48.214;16.388;2023-04-24T00:39:21;12.70;;;5.67;;
19329;SDS011;9799;48.214;16.388;2023-04-24T00:42:44;5.70;;;5.20;;
19329;SDS011;9799;48.214;16.388;2023-04-24T00:46:06;7.10;;;6.33;;
19329;SDS011;9799;48.214;16.388;2023-04-24T00:49:27;7.50;;;6.37;;
19329;SDS011;9799;48.214;16.388;2023-04-24T00:52:49;6.70;;;5.90;;
19329;SDS011;9799;48.214;16.388;2023-04-24T00:56:10;7.23;;;6.47;;
19329;SDS011;9799;48.214;16.388;2023-04-24T00:59:33;7.93;;;5.80;;
19329;SDS011;9799;48.214;16.388;2023-04-24T01:02:55;6.93;;;6.30;;
19329;SDS011;9799;48.214;16.388;2023-04-24T01:06:18;9.07;;;7.07;;
19329;SDS011;9799;48.214;16.388;2023-04-24T01:09:40;7.63;;;6.93;;
19329;SDS011;9799;48.214;16.388;2023-04-24T01:13:02;7.00;;;6.30;;
19329;SDS011;9799;48.214;16.388;2023-04-24T01:16:24;9.67;;;7.30;;
19329;SDS011;9799;48.214;16.388;2023-04-24T01:19:46;7.63;;;6.87;;
19329;SDS011;9799;48.214;16.388;2023-04-24T01:23:08;10.13;;;7.10;;
19329;SDS011;9799;48.214;16.388;2023-04-24T01:26:29;7.63;;;6.83;;
19329;SDS011;9799;48.214;16.388;2023-04-24T01:29:51;8.70;;;6.70;;
19329;SDS011;9799;48.214;16.388;2023-04-24T01:33:13;7.60;;;6.90;;
19329;SDS011;9799;48.214;16.388;2023-04-24T01:36:34;11.73;;;6.87;;
19329;SDS011;9799;48.214;16.388;2023-04-24T01:39:57;8.07;;;6.53;;
19329;SDS011;9799;48.214;16.388;2023-04-24T01:43:18;10.23;;;7.43;;
19329;SDS011;9799;48.214;16.388;2023-04-24T01:46:40;9.10;;;6.53;;
19329;SDS011;9799;48.214;16.388;2023-04-24T01:50:01;9.30;;;7.13;;
19329;SDS011;9799;48.214;16.388;2023-04-24T01:53:22;7.20;;;6.57;;
19329;SDS011;9799;48.214;16.388;2023-04-24T01:56:45;7.60;;;6.80;;
19329;SDS011;9799;48.214;16.388;2023-04-24T02:00:07;9.13;;;7.27;;
19329;SDS011;9799;48.214;16.388;2023-04-24T02:03:31;7.47;;;6.73;;
19329;SDS011;9799;48.214;16.388;2023-04-24T02:06:52;12.47;;;7.90;;
19329;SDS011;9799;48.214;16.388;2023-04-24T02:10:13;8.53;;;7.63;;
19329;SDS011;9799;48.214;16.388;2023-04-24T02:13:36;7.60;;;6.80;;
19329;SDS011;9799;48.214;16.388;2023-04-24T02:16:57;7.50;;;6.80;;
19329;SDS011;9799;48.214;16.388;2023-04-24T02:20:18;6.10;;;5.50;;
19329;SDS011;9799;48.214;16.388;2023-04-24T02:23:39;7.20;;;6.07;;
19329;SDS011;9799;48.214;16.388;2023-04-24T02:27:01;5.60;;;4.83;;
19329;SDS011;9799;48.214;16.388;2023-04-24T02:30:23;5.60;;;5.00;;
19329;SDS011;9799;48.214;16.388;2023-04-24T02:33:44;6.00;;;4.50;;
19329;SDS011;9799;48.214;16.388;2023-04-24T02:37:05;4.63;;;4.10;;
19329;SDS011;9799;48.214;16.388;2023-04-24T02:40:27;5.97;;;4.00;;
19329;SDS011;9799;48.214;16.388;2023-04-24T02:43:48;6.17;;;4.03;;
19329;SDS011;9799;48.214;16.388;2023-04-24T02:47:10;5.13;;;4.63;;
19329;SDS011;9799;48.214;16.388;2023-04-24T02:50:31;4.73;;;4.20;;
19329;SDS011;9799;48.214;16.388;2023-04-24T02:53:53;4.27;;;3.87;;
19329;SDS011;9799;48.214;16.388;2023-04-24T02:57:14;5.93;;;5.27;;
19329;SDS011;9799;48.214;16.388;2023-04-24T03:00:35;6.40;;;4.50;;
19329;SDS011;9799;48.214;16.388;2023-04-24T03:03:58;4.33;;;3.90;;
19329;SDS011;9799;48.214;16.388;2023-04-24T03:07:19;5.13;;;4.50;;
19329;SDS011;9799;48.214;16.388;2023-04-24T03:10:40;4.27;;;3.80;;
19329;SDS011;9799;48.214;16.388;2023-04-24T03:14:01;4.23;;;3.83;;
19329;SDS011;9799;48.214;16.388;2023-04-24T03:17:22;4.10;;;3.57;;
19329;SDS011;9799;48.214;16.388;2023-04-24T03:20:46;4.40;;;3.57;;
19329;SDS011;9799;48.214;16.388;2023-04-24T03:24:07;4.23;;;3.83;;
19329;SDS011;9799;48.214;16.388;2023-04-24T03:27:29;5.33;;;4.27;;
19329;SDS011;9799;48.214;16.388;2023-04-24T03:30:50;4.60;;;4.10;;
19329;SDS011;9799;48.214;16.388;2023-04-24T03:34:12;5.53;;;4.00;;
19329;SDS011;9799;48.214;16.388;2023-04-24T03:37:34;4.43;;;3.90;;
19329;SDS011;9799;48.214;16.388;2023-04-24T03:40:56;4.27;;;3.87;;
19329;SDS011;9799;48.214;16.388;2023-04-24T03:44:17;6.43;;;3.60;;
19329;SDS011;9799;48.214;16.388;2023-04-24T03:47:38;4.33;;;3.97;;
19329;SDS011;9799;48.214;16.388;2023-04-24T03:50:59;5.60;;;3.93;;
19329;SDS011;9799;48.214;16.388;2023-04-24T03:54:22;5.00;;;3.83;;
19329;SDS011;9799;48.214;16.388;2023-04-24T03:57:43;4.07;;;3.67;;
19329;SDS011;9799;48.214;16.388;2023-04-24T04:01:04;4.50;;;3.53;;
19329;SDS011;9799;48.214;16.388;2023-04-24T04:04:25;4.10;;;3.70;;
19329;SDS011;9799;48.214;16.388;2023-04-24T04:07:47;5.47;;;3.93;;
19329;SDS011;9799;48.214;16.388;2023-04-24T04:11:09;3.77;;;3.47;;
19329;SDS011;9799;48.214;16.388;2023-04-24T04:14:30;3.80;;;3.50;;
19329;SDS011;9799;48.214;16.388;2023-04-24T04:17:51;3.70;;;3.40;;
19329;SDS011;9799;48.214;16.388;2023-04-24T04:21:13;3.37;;;3.07;;
19329;SDS011;9799;48.214;16.388;2023-04-24T04:24:35;4.27;;;3.23;;
19329;SDS011;9799;48.214;16.388;2023-04-24T04:27:58;5.17;;;3.23;;
19329;SDS011;9799;48.214;16.388;2023-04-24T04:31:21;4.07;;;3.67;;
19329;SDS011;9799;48.214;16.388;2023-04-24T04:34:42;3.60;;;3.27;;
19329;SDS011;9799;48.214;16.388;2023-04-24T04:38:04;3.23;;;2.93;;
19329;SDS011;9799;48.214;16.388;2023-04-24T04:41:27;3.87;;;3.27;;
19329;SDS011;9799;48.214;16.388;2023-04-24T04:44:50;3.13;;;2.83;;
19329;SDS011;9799;48.214;16.388;2023-04-24T04:48:12;6.43;;;3.23;;
19329;SDS011;9799;48.214;16.388;2023-04-24T04:51:33;5.30;;;3.73;;
19329;SDS011;9799;48.214;16.388;2023-04-24T04:54:55;4.53;;;3.07;;
19329;SDS011;9799;48.214;16.388;2023-04-24T04:58:16;3.03;;;2.80;;
19329;SDS011;9799;48.214;16.388;2023-04-24T05:01:38;3.80;;;3.00;;
19329;SDS011;9799;48.214;16.388;2023-04-24T05:05:00;3.60;;;3.07;;
19329;SDS011;9799;48.214;16.388;2023-04-24T05:08:21;4.80;;;2.80;;
19329;SDS011;9799;48.214;16.388;2023-04-24T05:11:42;2.90;;;2.70;;
19329;SDS011;9799;48.214;16.388;2023-04-24T05:15:04;3.47;;;3.03;;
19329;SDS011;9799;48.214;16.388;2023-04-24T05:18:27;3.30;;;3.00;;
19329;SDS011;9799;48.214;16.388;2023-04-24T05:21:49;3.53;;;2.37;;
19329;SDS011;9799;48.214;16.388;2023-04-24T05:25:10;3.07;;;2.70;;
19329;SDS011;9799;48.214;16.388;2023-04-24T05:28:31;4.17;;;2.40;;
19329;SDS011;9799;48.214;16.388;2023-04-24T05:31:53;2.73;;;2.53;;
19329;SDS011;9799;48.214;16.388;2023-04-24T05:35:15;2.77;;;2.57;;
19329;SDS011;9799;48.214;16.388;2023-04-24T05:38:37;2.97;;;2.67;;
19329;SDS011;9799;48.214;16.388;2023-04-24T05:41:59;2.90;;;2.70;;
19329;SDS011;9799;48.214;16.388;2023-04-24T05:45:20;3.30;;;2.53;;
19329;SDS011;9799;48.214;16.388;2023-04-24T05:48:41;3.20;;;2.90;;
19329;SDS011;9799;48.214;16.388;2023-04-24T05:52:04;2.87;;;2.67;;
19329;SDS011;9799;48.214;16.388;2023-04-24T05:55:28;3.87;;;3.00;;
19329;SDS011;9799;48.214;16.388;2023-04-24T05:58:52;2.40;;;2.20;;
19329;SDS011;9799;48.214;16.388;2023-04-24T06:02:13;2.83;;;2.57;;
19329;SDS011;9799;48.214;16.388;2023-04-24T06:05:34;3.27;;;2.67;;
19329;SDS011;9799;48.214;16.388;2023-04-24T06:08:57;3.00;;;2.77;;
19329;SDS011;9799;48.214;16.388;2023-04-24T06:12:18;2.50;;;2.30;;
19329;SDS011;9799;48.214;16.388;2023-04-24T06:15:40;4.07;;;2.23;;
19329;SDS011;9799;48.214;16.388;2023-04-24T06:19:01;2.43;;;2.23;;
19329;SDS011;9799;48.214;16.388;2023-04-24T06:22:22;3.50;;;2.60;;
19329;SDS011;9799;48.214;16.388;2023-04-24T06:25:44;2.93;;;2.60;;
19329;SDS011;9799;48.214;16.388;2023-04-24T06:29:06;3.83;;;2.83;;
19329;SDS011;9799;48.214;16.388;2023-04-24T06:32:27;3.30;;;2.67;;
19329;SDS011;9799;48.214;16.388;2023-04-24T06:35:50;2.70;;;2.50;;
19329;SDS011;9799;48.214;16.388;2023-04-24T06:39:11;2.80;;;2.50;;
19329;SDS011;9799;48.214;16.388;2023-04-24T06:42:34;3.30;;;3.00;;
19329;SDS011;9799;48.214;16.388;2023-04-24T06:45:55;2.60;;;2.40;;
19329;SDS011;9799;48.214;16.388;2023-04-24T06:49:17;2.87;;;2.67;;
19329;SDS011;9799;48.214;16.388;2023-04-24T06:52:38;2.97;;;2.73;;
19329;SDS011;9799;48.214;16.388;2023-04-24T06:56:00;2.37;;;2.17;;
19329;SDS011;9799;48.214;16.388;2023-04-24T06:59:24;5.20;;;2.37;;
19329;SDS011;9799;48.214;16.388;2023-04-24T07:02:45;4.53;;;2.50;;
19329;SDS011;9799;48.214;16.388;2023-04-24T07:06:06;3.03;;;2.30;;
19329;SDS011;9799;48.214;16.388;2023-04-24T07:09:27;4.03;;;2.40;;
19329;SDS011;9799;48.214;16.388;2023-04-24T07:12:49;2.53;;;2.33;;
19329;SDS011;9799;48.214;16.388;2023-04-24T07:16:11;2.73;;;2.33;;
19329;SDS011;9799;48.214;16.388;2023-04-24T07:19:33;3.17;;;2.10;;
19329;SDS011;9799;48.214;16.388;2023-04-24T07:22:54;2.60;;;2.40;;
19329;SDS011;9799;48.214;16.388;2023-04-24T07:26:16;2.63;;;2.33;;
19329;SDS011;9799;48.214;16.388;2023-04-24T07:29:37;2.40;;;2.20;;
19329;SDS011;9799;48.214;16.388;2023-04-24T07:33:00;3.63;;;2.53;;
19329;SDS011;9799;48.214;16.388;2023-04-24T07:36:22;2.53;;;2.33;;
19329;SDS011;9799;48.214;16.388;2023-04-24T07:39:43;2.80;;;2.60;;
19329;SDS011;9799;48.214;16.388;2023-04-24T07:43:04;3.80;;;2.40;;
19329;SDS011;9799;48.214;16.388;2023-04-24T07:46:26;2.57;;;2.37;;
19329;SDS011;9799;48.214;16.388;2023-04-24T07:49:50;3.83;;;2.80;;
19329;SDS011;9799;48.214;16.388;2023-04-24T07:53:11;4.40;;;2.47;;
19329;SDS011;9799;48.214;16.388;2023-04-24T07:56:33;2.70;;;1.87;;
19329;SDS011;9799;48.214;16.388;2023-04-24T07:59:58;3.20;;;2.83;;
19329;SDS011;9799;48.214;16.388;2023-04-24T08:03:19;2.60;;;2.40;;
19329;SDS011;9799;48.214;16.388;2023-04-24T08:06:42;2.67;;;2.47;;
19329;SDS011;9799;48.214;16.388;2023-04-24T08:10:03;3.43;;;2.60;;
19329;SDS011;9799;48.214;16.388;2023-04-24T08:13:25;2.77;;;2.30;;
19329;SDS011;9799;48.214;16.388;2023-04-24T08:16:46;2.73;;;2.53;;
19329;SDS011;9799;48.214;16.388;2023-04-24T08:20:08;3.87;;;2.27;;
19329;SDS011;9799;48.214;16.388;2023-04-24T08:23:34;2.67;;;2.47;;
19329;SDS011;9799;48.214;16.388;2023-04-24T08:26:55;2.57;;;2.37;;
19329;SDS011;9799;48.214;16.388;2023-04-24T08:30:17;2.50;;;2.30;;
19329;SDS011;9799;48.214;16.388;2023-04-24T08:33:39;3.40;;;2.33;;
19329;SDS011;9799;48.214;16.388;2023-04-24T08:37:00;2.10;;;1.93;;
19329;SDS011;9799;48.214;16.388;2023-04-24T08:40:27;2.40;;;2.20;;
19329;SDS011;9799;48.214;16.388;2023-04-24T08:43:49;2.60;;;2.40;;
19329;SDS011;9799;48.214;16.388;2023-04-24T08:47:12;6.63;;;2.47;;
19329;SDS011;9799;48.214;16.388;2023-04-24T08:50:33;3.60;;;2.73;;
19329;SDS011;9799;48.214;16.388;2023-04-24T08:53:55;2.17;;;1.97;;
19329;SDS011;9799;48.214;16.388;2023-04-24T08:57:19;3.70;;;1.20;;
19329;SDS011;9799;48.214;16.388;2023-04-24T09:00:40;2.30;;;1.67;;
19329;SDS011;9799;48.214;16.388;2023-04-24T09:04:06;3.27;;;1.30;;
19329;SDS011;9799;48.214;16.388;2023-04-24T09:07:30;3.77;;;1.50;;
19329;SDS011;9799;48.214;16.388;2023-04-24T09:10:55;1.30;;;1.20;;
19329;SDS011;9799;48.214;16.388;2023-04-24T09:14:19;2.70;;;1.13;;
19329;SDS011;9799;48.214;16.388;2023-04-24T09:17:43;2.23;;;1.27;;
19329;SDS011;9799;48.214;16.388;2023-04-24T09:21:06;1.20;;;1.00;;
19329;SDS011;9799;48.214;16.388;2023-04-24T09:24:29;1.40;;;0.97;;
19329;SDS011;9799;48.214;16.388;2023-04-24T09:27:53;1.30;;;1.20;;
19329;SDS011;9799;48.214;16.388;2023-04-24T09:31:17;1.20;;;0.87;;
19329;SDS011;9799;48.214;16.388;2023-04-24T09:34:41;2.30;;;0.97;;
19329;SDS011;9799;48.214;16.388;2023-04-24T09:38:03;1.30;;;1.10;;
19329;SDS011;9799;48.214;16.388;2023-04-24T09:41:25;2.33;;;1.30;;
19329;SDS011;9799;48.214;16.388;2023-04-24T09:44:46;1.57;;;1.30;;
19329;SDS011;9799;48.214;16.388;2023-04-24T09:48:12;3.37;;;1.50;;
19329;SDS011;9799;48.214;16.388;2023-04-24T09:51:34;2.13;;;1.27;;
19329;SDS011;9799;48.214;16.388;2023-04-24T09:54:56;1.80;;;1.70;;
19329;SDS011;9799;48.214;16.388;2023-04-24T09:58:18;1.53;;;1.17;;
19329;SDS011;9799;48.214;16.388;2023-04-24T10:01:45;2.47;;;1.53;;
19329;SDS011;9799;48.214;16.388;2023-04-24T10:05:09;1.77;;;1.40;;
19329;SDS011;9799;48.214;16.388;2023-04-24T10:08:32;2.17;;;1.10;;
19329;SDS011;9799;48.214;16.388;2023-04-24T10:11:57;1.70;;;1.40;;
19329;SDS011;9799;48.214;16.388;2023-04-24T10:15:19;1.40;;;1.10;;
19329;SDS011;9799;48.214;16.388;2023-04-24T10:18:41;2.03;;;1.30;;
19329;SDS011;9799;48.214;16.388;2023-04-24T10:22:04;1.30;;;1.20;;
19329;SDS011;9799;48.214;16.388;2023-04-24T10:25:26;2.97;;;1.43;;
19329;SDS011;9799;48.214;16.388;2023-04-24T10:28:49;2.20;;;1.57;;
19329;SDS011;9799;48.214;16.388;2023-04-24T10:32:11;1.60;;;1.40;;
19329;SDS011;9799;48.214;16.388;2023-04-24T10:35:32;1.47;;;1.30;;
19329;SDS011;9799;48.214;16.388;2023-04-24T10:39:00;2.07;;;1.10;;
19329;SDS011;9799;48.214;16.388;2023-04-24T10:42:23;2.60;;;1.67;;
19329;SDS011;9799;48.214;16.388;2023-04-24T10:49:27;1.57;;;1.47;;
19329;SDS011;9799;48.214;16.388;2023-04-24T10:52:49;1.13;;;1.03;;
19329;SDS011;9799;48.214;16.388;2023-04-24T10:56:15;3.97;;;1.50;;
19329;SDS011;9799;48.214;16.388;2023-04-24T10:59:36;1.50;;;1.40;;
19329;SDS011;9799;48.214;16.388;2023-04-24T11:02:57;1.53;;;1.43;;
19329;SDS011;9799;48.214;16.388;2023-04-24T11:06:19;1.70;;;1.60;;
19329;SDS011;9799;48.214;16.388;2023-04-24T11:09:53;3.73;;;1.33;;
19329;SDS011;9799;48.214;16.388;2023-04-24T11:13:22;2.33;;;1.30;;
19329;SDS011;9799;48.214;16.388;2023-04-24T11:16:44;3.70;;;1.40;;
19329;SDS011;9799;48.214;16.388;2023-04-24T11:20:16;1.63;;;1.50;;
19329;SDS011;9799;48.214;16.388;2023-04-24T11:23:39;1.10;;;1.00;;
19329;SDS011;9799;48.214;16.388;2023-04-24T11:27:06;1.30;;;1.20;;
19329;SDS011;9799;48.214;16.388;2023-04-24T11:30:34;1.63;;;1.50;;
19329;SDS011;9799;48.214;16.388;2023-04-24T11:33:55;1.27;;;1.17;;
19329;SDS011;9799;48.214;16.388;2023-04-24T11:37:17;1.57;;;1.20;;
19329;SDS011;9799;48.214;16.388;2023-04-24T11:40:38;1.17;;;0.97;;
19329;SDS011;9799;48.214;16.388;2023-04-24T11:43:59;1.23;;;1.13;;
19329;SDS011;9799;48.214;16.388;2023-04-24T11:47:28;1.87;;;1.47;;
19329;SDS011;9799;48.214;16.388;2023-04-24T11:50:50;2.67;;;1.47;;
19329;SDS011;9799;48.214;16.388;2023-04-24T11:54:11;2.17;;;1.77;;
19329;SDS011;9799;48.214;16.388;2023-04-24T11:57:32;2.43;;;1.60;;
19329;SDS011;9799;48.214;16.388;2023-04-24T12:00:56;1.57;;;1.47;;
19329;SDS011;9799;48.214;16.388;2023-04-24T12:04:20;1.70;;;1.60;;
19329;SDS011;9799;48.214;16.388;2023-04-24T12:07:41;5.63;;;1.57;;
19329;SDS011;9799;48.214;16.388;2023-04-24T12:11:03;1.80;;;1.23;;
19329;SDS011;9799;48.214;16.388;2023-04-24T12:14:27;1.73;;;1.40;;
19329;SDS011;9799;48.214;16.388;2023-04-24T12:17:50;1.67;;;1.53;;
19329;SDS011;9799;48.214;16.388;2023-04-24T12:21:20;3.73;;;1.87;;
19329;SDS011;9799;48.214;16.388;2023-04-24T12:24:55;2.17;;;1.83;;
19329;SDS011;9799;48.214;16.388;2023-04-24T12:28:18;2.73;;;1.87;;
19329;SDS011;9799;48.214;16.388;2023-04-24T12:31:39;4.30;;;1.67;;
19329;SDS011;9799;48.214;16.388;2023-04-24T12:35:00;4.73;;;1.30;;
19329;SDS011;9799;48.214;16.388;2023-04-24T12:38:27;3.07;;;1.80;;
19329;SDS011;9799;48.214;16.388;2023-04-24T12:41:56;1.67;;;1.20;;
19329;SDS011;9799;48.214;16.388;2023-04-24T12:45:18;1.70;;;1.60;;
19329;SDS011;9799;48.214;16.388;2023-04-24T12:48:42;2.70;;;1.60;;
19329;SDS011;9799;48.214;16.388;2023-04-24T12:52:03;2.43;;;1.70;;
19329;SDS011;9799;48.214;16.388;2023-04-24T12:55:26;2.40;;;1.63;;
19329;SDS011;9799;48.214;16.388;2023-04-24T12:58:47;3.07;;;1.97;;
19329;SDS011;9799;48.214;16.388;2023-04-24T13:02:11;4.20;;;1.70;;
19329;SDS011;9799;48.214;16.388;2023-04-24T13:05:32;2.30;;;1.60;;
19329;SDS011;9799;48.214;16.388;2023-04-24T13:08:53;4.17;;;2.20;;
19329;SDS011;9799;48.214;16.388;2023-04-24T13:12:18;3.67;;;3.10;;
19329;SDS011;9799;48.214;16.388;2023-04-24T13:15:44;3.27;;;2.17;;
19329;SDS011;9799;48.214;16.388;2023-04-24T13:19:05;3.13;;;2.10;;
19329;SDS011;9799;48.214;16.388;2023-04-24T13:22:26;3.03;;;2.37;;
19329;SDS011;9799;48.214;16.388;2023-04-24T13:25:47;2.93;;;2.17;;
19329;SDS011;9799;48.214;16.388;2023-04-24T13:29:10;4.20;;;2.30;;
19329;SDS011;9799;48.214;16.388;2023-04-24T13:32:31;3.30;;;2.63;;
19329;SDS011;9799;48.214;16.388;2023-04-24T13:35:54;2.20;;;2.00;;
19329;SDS011;9799;48.214;16.388;2023-04-24T13:39:15;19.97;;;16.87;;
19329;SDS011;9799;48.214;16.388;2023-04-24T13:42:37;11.23;;;9.40;;
19329;SDS011;9799;48.214;16.388;2023-04-24T13:45:59;4.83;;;3.70;;
19329;SDS011;9799;48.214;16.388;2023-04-24T13:49:22;2.97;;;2.40;;
19329;SDS011;9799;48.214;16.388;2023-04-24T13:52:45;2.43;;;2.23;;
19329;SDS011;9799;48.214;16.388;2023-04-24T13:56:06;2.73;;;2.33;;
19329;SDS011;9799;48.214;16.388;2023-04-24T13:59:28;2.80;;;2.60;;
19329;SDS011;9799;48.214;16.388;2023-04-24T14:02:50;2.13;;;1.93;;
19329;SDS011;9799;48.214;16.388;2023-04-24T14:06:12;2.60;;;2.40;;
19329;SDS011;9799;48.214;16.388;2023-04-24T14:09:33;4.77;;;2.57;;
19329;SDS011;9799;48.214;16.388;2023-04-24T14:12:54;2.47;;;2.27;;
19329;SDS011;9799;48.214;16.388;2023-04-24T14:16:16;2.57;;;1.70;;
19329;SDS011;9799;48.214;16.388;2023-04-24T14:19:38;2.20;;;1.50;;
19329;SDS011;9799;48.214;16.388;2023-04-24T14:22:59;2.13;;;1.67;;
19329;SDS011;9799;48.214;16.388;2023-04-24T14:26:21;1.47;;;1.37;;
19329;SDS011;9799;48.214;16.388;2023-04-24T14:29:43;1.60;;;1.50;;
19329;SDS011;9799;48.214;16.388;2023-04-24T14:33:05;2.00;;;1.80;;
19329;SDS011;9799;48.214;16.388;2023-04-24T14:36:27;2.20;;;1.80;;
19329;SDS011;9799;48.214;16.388;2023-04-24T14:39:49;2.80;;;2.40;;
19329;SDS011;9799;48.214;16.388;2023-04-24T14:43:10;2.53;;;2.27;;
19329;SDS011;9799;48.214;16.388;2023-04-24T14:46:32;3.37;;;2.00;;
19329;SDS011;9799;48.214;16.388;2023-04-24T14:49:53;3.77;;;2.77;;
19329;SDS011;9799;48.214;16.388;2023-04-24T14:53:16;2.80;;;2.40;;
19329;SDS011;9799;48.214;16.388;2023-04-24T14:56:37;2.53;;;2.07;;
19329;SDS011;9799;48.214;16.388;2023-04-24T15:00:00;5.03;;;2.30;;
19329;SDS011;9799;48.214;16.388;2023-04-24T15:03:22;2.00;;;1.80;;
19329;SDS011;9799;48.214;16.388;2023-04-24T15:06:46;3.67;;;2.50;;
19329;SDS011;9799;48.214;16.388;2023-04-24T15:10:09;3.20;;;1.70;;
19329;SDS011;9799;48.214;16.388;2023-04-24T15:13:31;1.90;;;1.57;;
19329;SDS011;9799;48.214;16.388;2023-04-24T15:16:52;2.73;;;1.60;;
19329;SDS011;9799;48.214;16.388;2023-04-24T15:20:13;1.97;;;1.63;;
19329;SDS011;9799;48.214;16.388;2023-04-24T15:23:34;3.73;;;1.97;;
19329;SDS011;9799;48.214;16.388;2023-04-24T15:26:57;3.93;;;1.93;;
19329;SDS011;9799;48.214;16.388;2023-04-24T15:30:20;3.33;;;1.70;;
19329;SDS011;9799;48.214;16.388;2023-04-24T15:33:42;3.03;;;1.90;;
19329;SDS011;9799;48.214;16.388;2023-04-24T15:37:03;2.47;;;1.80;;
19329;SDS011;9799;48.214;16.388;2023-04-24T15:40:25;1.77;;;1.67;;
19329;SDS011;9799;48.214;16.388;2023-04-24T15:43:48;1.17;;;1.07;;
19329;SDS011;9799;48.214;16.388;2023-04-24T15:47:09;2.73;;;1.57;;
19329;SDS011;9799;48.214;16.388;2023-04-24T15:50:33;1.40;;;1.00;;
19329;SDS011;9799;48.214;16.388;2023-04-24T15:53:54;1.73;;;1.47;;
19329;SDS011;9799;48.214;16.388;2023-04-24T15:57:15;1.73;;;1.10;;
19329;SDS011;9799;48.214;16.388;2023-04-24T16:00:38;1.57;;;0.90;;
19329;SDS011;9799;48.214;16.388;2023-04-24T16:03:59;1.27;;;0.97;;
19329;SDS011;9799;48.214;16.388;2023-04-24T16:07:21;1.20;;;1.00;;
19329;SDS011;9799;48.214;16.388;2023-04-24T16:10:42;1.67;;;1.33;;
19329;SDS011;9799;48.214;16.388;2023-04-24T16:14:05;1.77;;;1.20;;
19329;SDS011;9799;48.214;16.388;2023-04-24T16:17:27;3.60;;;1.77;;
19329;SDS011;9799;48.214;16.388;2023-04-24T16:20:49;2.93;;;1.97;;
19329;SDS011;9799;48.214;16.388;2023-04-24T16:24:10;5.37;;;2.63;;
19329;SDS011;9799;48.214;16.388;2023-04-24T16:27:32;3.07;;;2.30;;
19329;SDS011;9799;48.214;16.388;2023-04-24T16:30:53;1.67;;;1.57;;
19329;SDS011;9799;48.214;16.388;2023-04-24T16:34:16;4.70;;;2.10;;
19329;SDS011;9799;48.214;16.388;2023-04-24T16:37:37;2.57;;;1.67;;
19329;SDS011;9799;48.214;16.388;2023-04-24T16:40:58;2.33;;;1.73;;
19329;SDS011;9799;48.214;16.388;2023-04-24T16:44:20;4.33;;;1.93;;
19329;SDS011;9799;48.214;16.388;2023-04-24T16:47:41;4.57;;;1.57;;
19329;SDS011;9799;48.214;16.388;2023-04-24T16:51:03;1.80;;;1.10;;
19329;SDS011;9799;48.214;16.388;2023-04-24T16:54:25;5.27;;;2.40;;
19329;SDS011;9799;48.214;16.388;2023-04-24T16:57:48;1.50;;;1.40;;
19329;SDS011;9799;48.214;16.388;2023-04-24T17:01:09;2.33;;;1.60;;
19329;SDS011;9799;48.214;16.388;2023-04-24T17:04:31;4.23;;;2.70;;
19329;SDS011;9799;48.214;16.388;2023-04-24T17:07:55;3.93;;;3.07;;
19329;SDS011;9799;48.214;16.388;2023-04-24T17:11:16;4.30;;;2.40;;
19329;SDS011;9799;48.214;16.388;2023-04-24T17:14:38;2.57;;;2.37;;
19329;SDS011;9799;48.214;16.388;2023-04-24T17:17:59;2.37;;;1.83;;
19329;SDS011;9799;48.214;16.388;2023-04-24T17:21:21;2.33;;;2.00;;
19329;SDS011;9799;48.214;16.388;2023-04-24T17:24:43;2.20;;;2.00;;
19329;SDS011;9799;48.214;16.388;2023-04-24T17:28:06;3.47;;;2.40;;
19329;SDS011;9799;48.214;16.388;2023-04-24T17:31:37;2.37;;;2.17;;
19329;SDS011;9799;48.214;16.388;2023-04-24T17:34:58;3.63;;;2.63;;
19329;SDS011;9799;48.214;16.388;2023-04-24T17:38:20;2.50;;;2.30;;
19329;SDS011;9799;48.214;16.388;2023-04-24T17:41:43;3.37;;;1.83;;
19329;SDS011;9799;48.214;16.388;2023-04-24T17:45:05;2.10;;;1.73;;
19329;SDS011;9799;48.214;16.388;2023-04-24T17:48:28;2.40;;;2.20;;
19329;SDS011;9799;48.214;16.388;2023-04-24T17:51:50;3.93;;;2.33;;
19329;SDS011;9799;48.214;16.388;2023-04-24T17:55:12;3.43;;;2.37;;
19329;SDS011;9799;48.214;16.388;2023-04-24T17:58:36;6.03;;;2.43;;
19329;SDS011;9799;48.214;16.388;2023-04-24T18:01:57;3.13;;;2.40;;
19329;SDS011;9799;48.214;16.388;2023-04-24T18:05:19;3.80;;;2.07;;
19329;SDS011;9799;48.214;16.388;2023-04-24T18:08:41;3.73;;;2.13;;
19329;SDS011;9799;48.214;16.388;2023-04-24T18:12:03;3.30;;;2.70;;
19329;SDS011;9799;48.214;16.388;2023-04-24T18:15:27;3.13;;;2.30;;
19329;SDS011;9799;48.214;16.388;2023-04-24T18:18:55;2.73;;;2.53;;
19329;SDS011;9799;48.214;16.388;2023-04-24T18:22:16;2.47;;;2.27;;
19329;SDS011;9799;48.214;16.388;2023-04-24T18:25:38;2.20;;;2.00;;
19329;SDS011;9799;48.214;16.388;2023-04-24T18:28:59;2.70;;;2.07;;
19329;SDS011;9799;48.214;16.388;2023-04-24T18:32:23;3.47;;;2.20;;
19329;SDS011;9799;48.214;16.388;2023-04-24T18:35:45;1.97;;;1.77;;
19329;SDS011;9799;48.214;16.388;2023-04-24T18:39:07;4.40;;;1.70;;
19329;SDS011;9799;48.214;16.388;2023-04-24T18:42:29;3.07;;;2.40;;
19329;SDS011;9799;48.214;16.388;2023-04-24T18:45:50;2.70;;;2.07;;
19329;SDS011;9799;48.214;16.388;2023-04-24T18:49:13;2.33;;;1.70;;
19329;SDS011;9799;48.214;16.388;2023-04-24T18:52:35;2.20;;;1.40;;
19329;SDS011;9799;48.214;16.388;2023-04-24T18:55:57;3.13;;;2.23;;
19329;SDS011;9799;48.214;16.388;2023-04-24T18:59:19;3.60;;;1.90;;
19329;SDS011;9799;48.214;16.388;2023-04-24T19:02:40;1.87;;;1.77;;
19329;SDS011;9799;48.214;16.388;2023-04-24T19:06:04;1.50;;;1.40;;
19329;SDS011;9799;48.214;16.388;2023-04-24T19:09:25;3.10;;;2.10;;
19329;SDS011;9799;48.214;16.388;2023-04-24T19:12:47;1.90;;;1.70;;
19329;SDS011;9799;48.214;16.388;2023-04-24T19:16:14;2.40;;;2.20;;
19329;SDS011;9799;48.214;16.388;2023-04-24T19:19:37;3.40;;;2.10;;
19329;SDS011;9799;48.214;16.388;2023-04-24T19:23:00;2.60;;;2.07;;
19329;SDS011;9799;48.214;16.388;2023-04-24T19:26:22;2.73;;;2.30;;
19329;SDS011;9799;48.214;16.388;2023-04-24T19:29:49;14.20;;;2.60;;
19329;SDS011;9799;48.214;16.388;2023-04-24T19:33:11;2.50;;;2.03;;
19329;SDS011;9799;48.214;16.388;2023-04-24T19:36:32;3.07;;;2.03;;
19329;SDS011;9799;48.214;16.388;2023-04-24T19:39:56;3.03;;;2.23;;
19329;SDS011;9799;48.214;16.388;2023-04-24T19:43:18;2.40;;;2.00;;
19329;SDS011;9799;48.214;16.388;2023-04-24T19:46:40;2.23;;;1.80;;
19329;SDS011;9799;48.214;16.388;2023-04-24T19:50:02;2.37;;;2.10;;
19329;SDS011;9799;48.214;16.388;2023-04-24T19:53:24;2.30;;;2.10;;
19329;SDS011;9799;48.214;16.388;2023-04-24T19:56:48;3.87;;;2.43;;
19329;SDS011;9799;48.214;16.388;2023-04-24T20:00:10;3.00;;;2.10;;
19329;SDS011;9799;48.214;16.388;2023-04-24T20:03:32;2.93;;;2.10;;
19329;SDS011;9799;48.214;16.388;2023-04-24T20:06:53;2.67;;;2.17;;
19329;SDS011;9799;48.214;16.388;2023-04-24T20:10:15;4.03;;;2.33;;
19329;SDS011;9799;48.214;16.388;2023-04-24T20:13:40;2.67;;;2.23;;
19329;SDS011;9799;48.214;16.388;2023-04-24T20:17:02;2.37;;;2.07;;
19329;SDS011;9799;48.214;16.388;2023-04-24T20:20:23;2.83;;;2.30;;
19329;SDS011;9799;48.214;16.388;2023-04-24T20:23:44;2.20;;;2.00;;